Time;durP1;ratioP1;P1;durP2;ratioP2;P2;SDS_P1;SDS_P2;PMS_P1;PMS_P2;Temp;Humidity;BMP_temperature;BMP_pressure;BME280_temperature;BME280_humidity;BME280_pressure;Samples;Min_cycle;Max_cycle;Signal;HPM_P1;HPM_P2
2023/01/27 00:02:19;;;;;;;9.77;4.50;;;;;;;;;;5083670;28;20097;-73
2023/01/27 00:04:45;;;;;;;9.35;4.53;;;;;;;;;;5083267;28;20083;-73
2023/01/27 00:07:10;;;;;;;10.10;4.95;;;;;;;;;;5083794;28;20028;-73
2023/01/27 00:09:35;;;;;;;8.88;4.10;;;;;;;;;;5083748;28;20036;-72
2023/01/27 00:14:46;;;;;;;8.40;3.88;;;;;;;;;;5052272;28;20049;-72
2023/01/27 00:17:12;;;;;;;8.40;4.00;;;;;;;;;;5083442;28;20035;-76
2023/01/27 00:19:37;;;;;;;10.75;4.47;;;;;;;;;;5083263;28;20032;-75
2023/01/27 00:24:46;;;;;;;9.35;4.43;;;;;;;;;;5083639;28;20027;-74
2023/01/27 00:27:12;;;;;;;9.15;3.90;;;;;;;;;;5083597;28;20024;-75
2023/01/27 00:29:38;;;;;;;8.20;3.80;;;;;;;;;;5083751;28;20313;-75
2023/01/27 00:34:48;;;;;;;12.85;4.25;;;;;;;;;;5083050;28;20077;-77
2023/01/27 00:37:14;;;;;;;9.98;4.13;;;;;;;;;;5083139;28;20016;-76
2023/01/27 00:39:40;;;;;;;9.05;3.88;;;;;;;;;;5083593;28;20029;-76
2023/01/27 00:42:05;;;;;;;8.13;3.88;;;;;;;;;;5083310;28;20112;-75
2023/01/27 00:44:31;;;;;;;6.95;3.65;;;;;;;;;;5083203;28;20100;-77
2023/01/27 00:46:56;;;;;;;6.97;3.45;;;;;;;;;;5083130;28;20042;-78
2023/01/27 00:49:21;;;;;;;8.40;3.70;;;;;;;;;;5082516;28;20028;-77
2023/01/27 00:51:47;;;;;;;7.35;3.50;;;;;;;;;;5082959;28;20036;-79
2023/01/27 00:54:13;;;;;;;7.57;3.70;;;;;;;;;;5082848;28;20275;-78
2023/01/27 00:56:39;;;;;;;8.10;3.80;;;;;;;;;;5082930;28;20028;-79
2023/01/27 00:59:05;;;;;;;7.45;3.47;;;;;;;;;;5066718;28;20032;-78
2023/01/27 01:01:32;;;;;;;7.68;3.65;;;;;;;;;;5090855;28;20295;-78
2023/01/27 01:03:58;;;;;;;8.57;3.33;;;;;;;;;;5090367;28;20029;-79
2023/01/27 01:06:23;;;;;;;8.27;3.88;;;;;;;;;;5083020;28;20062;-75
2023/01/27 01:08:51;;;;;;;8.30;4.00;;;;;;;;;;5082737;28;20075;-76
2023/01/27 01:11:17;;;;;;;6.78;3.47;;;;;;;;;;5082797;28;20033;-76
2023/01/27 01:13:43;;;;;;;7.68;3.58;;;;;;;;;;5082479;28;20028;-75
2023/01/27 01:16:18;;;;;;;7.35;3.90;;;;;;;;;;5082411;28;20327;-77
2023/01/27 01:18:44;;;;;;;8.43;3.90;;;;;;;;;;5082130;28;20024;-77
2023/01/27 01:21:11;;;;;;;7.95;3.90;;;;;;;;;;5082540;28;20100;-78
2023/01/27 01:23:38;;;;;;;8.45;3.80;;;;;;;;;;5064402;28;20066;-76
2023/01/27 01:26:04;;;;;;;6.97;3.72;;;;;;;;;;5082256;28;20027;-76
2023/01/27 01:28:29;;;;;;;6.72;3.63;;;;;;;;;;5082210;28;20028;-79
2023/01/27 01:30:55;;;;;;;7.13;3.78;;;;;;;;;;5082073;28;20344;-78
2023/01/27 01:33:20;;;;;;;7.43;3.90;;;;;;;;;;5081680;28;20025;-77
2023/01/27 01:35:46;;;;;;;7.93;3.78;;;;;;;;;;5082014;28;20028;-77
2023/01/27 01:38:12;;;;;;;8.40;3.90;;;;;;;;;;5081939;28;20033;-77
2023/01/27 01:40:42;;;;;;;8.15;3.60;;;;;;;;;;5097822;28;20032;-78
2023/01/27 01:43:13;;;;;;;9.43;4.10;;;;;;;;;;5081924;28;20305;-78
2023/01/27 01:45:51;;;;;;;8.30;3.40;;;;;;;;;;5081790;28;20320;-77
2023/01/27 01:48:22;;;;;;;7.53;3.60;;;;;;;;;;5080878;28;20031;-78
2023/01/27 01:50:56;;;;;;;;;;;;;;;;;;5082264;28;20220;-77
2023/01/27 01:53:28;;;;;;;7.30;3.53;;;;;;;;;;5081743;28;19912;-78
2023/01/27 01:55:55;;;;;;;7.55;3.22;;;;;;;;;;5081561;28;20020;-77
2023/01/27 01:58:21;;;;;;;9.40;4.43;;;;;;;;;;5081636;28;20027;-76
2023/01/27 02:00:46;;;;;;;8.68;4.00;;;;;;;;;;5081517;28;20266;-76
2023/01/27 02:03:12;;;;;;;9.23;3.58;;;;;;;;;;5080967;28;20041;-77
2023/01/27 02:05:43;;;;;;;9.50;4.00;;;;;;;;;;5081257;28;20024;-75
2023/01/27 02:08:11;;;;;;;;;;;;;;;;;;5081845;28;20063;-75
2023/01/27 02:10:37;;;;;;;9.15;4.20;;;;;;;;;;5081291;28;20188;-77
2023/01/27 02:13:03;;;;;;;8.57;4.03;;;;;;;;;;5080892;28;20032;-75
2023/01/27 02:15:30;;;;;;;7.93;4.00;;;;;;;;;;5074628;28;20033;-76
2023/01/27 02:17:56;;;;;;;8.07;3.88;;;;;;;;;;5070608;28;20063;-76
2023/01/27 02:20:45;;;;;;;7.53;3.90;;;;;;;;;;5052230;28;20030;-76
2023/01/27 02:23:31;;;;;;;8.43;4.05;;;;;;;;;;5069292;28;20542;-75
2023/01/27 02:26:06;;;;;;;10.23;4.05;;;;;;;;;;5069413;28;20024;-75
2023/01/27 02:28:31;;;;;;;8.20;4.25;;;;;;;;;;5069346;28;20028;-75
2023/01/27 02:30:57;;;;;;;8.75;4.13;;;;;;;;;;5069787;28;20036;-75
2023/01/27 02:33:22;;;;;;;9.52;4.00;;;;;;;;;;5069384;28;20088;-77
2023/01/27 02:36:08;;;;;;;11.60;4.32;;;;;;;;;;5069453;28;20507;-76
2023/01/27 02:38:54;;;;;;;8.70;3.92;;;;;;;;;;5069337;28;20036;-76
2023/01/27 02:41:31;;;;;;;8.27;3.90;;;;;;;;;;5069513;28;20107;-76
2023/01/27 02:43:57;;;;;;;8.90;4.20;;;;;;;;;;5069295;28;20391;-75
2023/01/27 02:46:22;;;;;;;8.20;4.30;;;;;;;;;;5069385;28;20040;-74
2023/01/27 02:48:48;;;;;;;9.50;4.40;;;;;;;;;;5068975;28;20059;-75
2023/01/27 02:51:13;;;;;;;8.70;4.20;;;;;;;;;;5069630;28;20032;-74
2023/01/27 02:53:39;;;;;;;8.20;3.90;;;;;;;;;;5069190;28;20556;-75
2023/01/27 02:56:05;;;;;;;8.50;4.00;;;;;;;;;;5051148;28;20081;-76
2023/01/27 02:58:30;;;;;;;10.82;4.47;;;;;;;;;;5069021;28;20209;-75
2023/01/27 03:00:56;;;;;;;8.23;3.90;;;;;;;;;;5069271;28;20021;-75
2023/01/27 03:03:21;;;;;;;7.82;4.03;;;;;;;;;;5068750;28;20556;-74
2023/01/27 03:05:47;;;;;;;9.93;4.00;;;;;;;;;;5068836;28;20020;-74
2023/01/27 03:08:12;;;;;;;8.55;4.18;;;;;;;;;;5069522;28;20043;-77
2023/01/27 03:10:38;;;;;;;9.20;4.05;;;;;;;;;;5068898;28;20511;-74
2023/01/27 03:13:04;;;;;;;10.18;4.30;;;;;;;;;;5069226;28;20028;-75
2023/01/27 03:18:15;;;;;;;7.82;4.10;;;;;;;;;;5068754;28;20089;-79
2023/01/27 03:20:42;;;;;;;8.90;4.55;;;;;;;;;;5069115;28;20063;-79
2023/01/27 03:23:09;;;;;;;8.45;4.38;;;;;;;;;;5069333;28;20071;-78
2023/01/27 03:25:34;;;;;;;9.75;4.80;;;;;;;;;;5069388;28;20697;-77
2023/01/27 03:28:00;;;;;;;9.90;4.93;;;;;;;;;;5073248;28;20029;-79
2023/01/27 03:30:29;;;;;;;8.13;4.38;;;;;;;;;;5072777;28;20034;-78
2023/01/27 03:32:54;;;;;;;9.73;4.53;;;;;;;;;;5072928;28;20067;-76
2023/01/27 03:35:22;;;;;;;8.40;4.68;;;;;;;;;;5072164;28;20056;-79
2023/01/27 03:46:19;;;;;;;9.85;4.57;;;;;;;;;;5084148;28;20031;-77
2023/01/27 03:48:55;;;;;;;7.13;4.10;;;;;;;;;;5084113;28;20032;-77
2023/01/27 03:51:23;;;;;;;8.90;4.43;;;;;;;;;;5084059;28;20032;-78
2023/01/27 03:53:49;;;;;;;7.82;4.05;;;;;;;;;;5084159;28;20059;-77
2023/01/27 03:56:15;;;;;;;10.23;4.90;;;;;;;;;;5081462;28;20670;-76
2023/01/27 03:58:42;;;;;;;9.02;4.30;;;;;;;;;;5082211;28;20043;-74
2023/01/27 04:01:18;;;;;;;8.25;4.38;;;;;;;;;;5083877;28;20032;-77
2023/01/27 04:09:21;;;;;;;8.57;4.40;;;;;;;;;;5083799;28;20299;-77
2023/01/27 04:11:59;;;;;;;8.55;4.20;;;;;;;;;;5083578;28;20028;-77
2023/01/27 04:14:31;;;;;;;9.40;4.25;;;;;;;;;;5083579;28;20036;-75
2023/01/27 04:17:02;;;;;;;8.43;4.15;;;;;;;;;;5083543;28;20362;-78
2023/01/27 04:19:28;;;;;;;9.43;4.40;;;;;;;;;;5083264;28;20055;-77
2023/01/27 04:21:56;;;;;;;8.75;4.32;;;;;;;;;;5083152;28;20020;-77
2023/01/27 04:24:22;;;;;;;8.10;4.32;;;;;;;;;;5073243;28;20060;-77
2023/01/27 04:26:49;;;;;;;9.77;4.60;;;;;;;;;;5057368;28;20024;-77
2023/01/27 04:29:16;;;;;;;8.50;4.70;;;;;;;;;;5083455;28;20205;-74
2023/01/27 04:31:42;;;;;;;8.18;4.68;;;;;;;;;;5083271;28;20349;-75
2023/01/27 04:34:09;;;;;;;7.97;4.20;;;;;;;;;;5081640;28;20033;-77
2023/01/27 04:36:34;;;;;;;8.65;4.35;;;;;;;;;;5080124;28;20032;-76
2023/01/27 04:39:01;;;;;;;8.13;4.10;;;;;;;;;;5083342;28;20031;-77
2023/01/27 04:41:26;;;;;;;8.52;4.32;;;;;;;;;;5077777;28;20048;-78
2023/01/27 04:43:52;;;;;;;6.97;3.97;;;;;;;;;;5075540;28;20392;-78
2023/01/27 04:46:18;;;;;;;7.72;3.80;;;;;;;;;;5080492;28;20020;-76
2023/01/27 04:48:43;;;;;;;6.97;3.90;;;;;;;;;;5082525;28;20070;-77
2023/01/27 04:51:09;;;;;;;7.38;3.42;;;;;;;;;;5079392;28;20029;-76
2023/01/27 04:53:34;;;;;;;7.03;3.30;;;;;;;;;;5076655;28;20503;-78
2023/01/27 04:56:05;;;;;;;9.82;3.53;;;;;;;;;;5074261;28;20023;-78
2023/01/27 04:58:30;;;;;;;6.10;3.08;;;;;;;;;;5080130;28;20025;-77
2023/01/27 05:00:56;;;;;;;6.05;3.20;;;;;;;;;;5080531;28;20113;-78
2023/01/27 05:03:21;;;;;;;5.75;3.10;;;;;;;;;;5078378;28;20082;-77
2023/01/27 05:05:47;;;;;;;5.53;2.92;;;;;;;;;;5074946;28;20020;-77
2023/01/27 05:08:12;;;;;;;5.45;2.90;;;;;;;;;;5072638;28;20035;-77
2023/01/27 05:10:38;;;;;;;6.30;2.95;;;;;;;;;;5080267;28;20340;-76
2023/01/27 05:13:03;;;;;;;6.18;2.97;;;;;;;;;;5080811;28;20324;-75
2023/01/27 05:15:29;;;;;;;6.28;2.80;;;;;;;;;;5062052;28;20016;-77
2023/01/27 05:17:55;;;;;;;6.55;3.38;;;;;;;;;;5071089;28;20032;-76
2023/01/27 05:20:21;;;;;;;6.30;3.38;;;;;;;;;;5073202;28;20036;-74
2023/01/27 05:22:46;;;;;;;6.72;3.05;;;;;;;;;;5082385;28;20354;-74
2023/01/27 05:25:12;;;;;;;6.28;3.50;;;;;;;;;;5082306;28;20316;-75
2023/01/27 05:27:37;;;;;;;6.15;3.30;;;;;;;;;;5080492;28;20028;-73
2023/01/27 05:30:03;;;;;;;6.15;3.75;;;;;;;;;;5082097;28;20021;-74
2023/01/27 05:32:29;;;;;;;7.75;3.40;;;;;;;;;;5082171;28;20036;-73
2023/01/27 05:34:54;;;;;;;5.90;3.67;;;;;;;;;;5059076;28;20032;-75
2023/01/27 05:37:19;;;;;;;8.52;3.78;;;;;;;;;;5073123;28;20020;-74
2023/01/27 05:39:45;;;;;;;9.30;4.10;;;;;;;;;;5081887;28;20032;-74
2023/01/27 05:42:10;;;;;;;8.10;4.25;;;;;;;;;;5078345;28;20016;-75
2023/01/27 05:44:35;;;;;;;9.00;4.15;;;;;;;;;;5078821;28;20491;-74
2023/01/27 05:47:01;;;;;;;8.82;4.30;;;;;;;;;;5081897;28;20092;-76
2023/01/27 05:49:27;;;;;;;7.50;3.72;;;;;;;;;;5076264;28;20017;-76
2023/01/27 05:51:52;;;;;;;6.43;3.45;;;;;;;;;;5071019;28;20024;-79
2023/01/27 05:54:18;;;;;;;7.20;3.50;;;;;;;;;;5081094;28;20032;-77
2023/01/27 05:56:43;;;;;;;7.07;3.50;;;;;;;;;;5081489;28;20225;-77
2023/01/27 05:59:10;;;;;;;8.10;3.83;;;;;;;;;;5081542;28;20082;-78
2023/01/27 06:01:36;;;;;;;6.68;3.22;;;;;;;;;;5081368;28;20048;-78
2023/01/27 06:04:02;;;;;;;6.63;3.17;;;;;;;;;;5081258;28;20036;-77
2023/01/27 06:06:30;;;;;;;10.07;3.60;;;;;;;;;;5081586;28;20267;-78
2023/01/27 06:08:56;;;;;;;6.95;3.50;;;;;;;;;;5081440;28;20036;-76
2023/01/27 06:11:23;;;;;;;6.35;3.00;;;;;;;;;;5081268;28;20059;-75
2023/01/27 06:13:48;;;;;;;6.28;3.15;;;;;;;;;;5081483;28;20024;-77
2023/01/27 06:16:16;;;;;;;6.72;3.45;;;;;;;;;;5081321;28;20044;-77
2023/01/27 06:18:42;;;;;;;8.85;3.65;;;;;;;;;;5081054;28;20025;-78
2023/01/27 06:21:09;;;;;;;7.20;3.30;;;;;;;;;;5084668;28;20408;-75
2023/01/27 06:23:35;;;;;;;6.90;3.33;;;;;;;;;;5074884;28;20055;-79
2023/01/27 06:26:05;;;;;;;7.82;3.50;;;;;;;;;;5083195;28;20040;-79
2023/01/27 06:28:30;;;;;;;7.28;3.33;;;;;;;;;;5081610;28;20020;-79
2023/01/27 06:31:05;;;;;;;5.72;3.20;;;;;;;;;;5081173;28;20032;-78
2023/01/27 06:33:31;;;;;;;21.38;3.55;;;;;;;;;;5063509;28;20066;-78
2023/01/27 06:36:05;;;;;;;8.75;3.30;;;;;;;;;;5081218;28;20028;-78
2023/01/27 06:38:31;;;;;;;5.88;3.00;;;;;;;;;;5081097;28;20031;-79
2023/01/27 06:40:56;;;;;;;6.32;2.80;;;;;;;;;;5074877;28;20486;-77
2023/01/27 06:43:22;;;;;;;7.05;3.00;;;;;;;;;;5076964;28;20116;-78
2023/01/27 06:45:51;;;;;;;6.40;2.80;;;;;;;;;;5070314;28;20103;-76
2023/01/27 06:48:16;;;;;;;6.45;3.28;;;;;;;;;;5071477;28;20035;-77
2023/01/27 06:50:42;;;;;;;5.68;3.10;;;;;;;;;;5078170;28;20024;-75
2023/01/27 06:53:08;;;;;;;6.15;3.20;;;;;;;;;;5080933;28;20028;-77
2023/01/27 06:55:40;;;;;;;7.72;3.60;;;;;;;;;;5081072;28;20033;-77
2023/01/27 06:58:05;;;;;;;6.55;3.60;;;;;;;;;;5080905;28;20028;-77
2023/01/27 07:00:31;;;;;;;7.72;3.30;;;;;;;;;;5075232;28;20034;-77
2023/01/27 07:02:56;;;;;;;5.97;3.22;;;;;;;;;;5077347;28;20320;-78
2023/01/27 07:05:22;;;;;;;7.45;3.17;;;;;;;;;;5080347;28;20358;-77
2023/01/27 07:07:47;;;;;;;7.85;3.63;;;;;;;;;;5080656;28;20193;-76
2023/01/27 07:10:13;;;;;;;6.25;3.28;;;;;;;;;;5079715;28;20224;-78
2023/01/27 07:12:38;;;;;;;9.80;3.85;;;;;;;;;;5078009;28;20061;-76
2023/01/27 07:15:08;;;;;;;8.73;3.50;;;;;;;;;;5077521;28;20094;-74
2023/01/27 07:17:34;;;;;;;7.05;3.28;;;;;;;;;;5080638;28;20324;-74
2023/01/27 07:19:59;;;;;;;7.38;3.20;;;;;;;;;;5080132;28;20041;-74
2023/01/27 07:22:25;;;;;;;6.47;3.28;;;;;;;;;;5079616;28;20033;-74
2023/01/27 07:24:51;;;;;;;8.07;3.53;;;;;;;;;;5076194;28;20457;-75
2023/01/27 07:27:16;;;;;;;6.25;3.03;;;;;;;;;;5072158;28;20087;-74
2023/01/27 07:29:41;;;;;;;8.25;3.33;;;;;;;;;;5074125;28;20036;-74
2023/01/27 07:32:07;;;;;;;6.97;3.40;;;;;;;;;;5080409;28;20062;-74
2023/01/27 07:34:32;;;;;;;6.95;3.42;;;;;;;;;;5079858;28;20099;-74
2023/01/27 07:36:58;;;;;;;7.97;2.97;;;;;;;;;;5080338;28;20209;-74
2023/01/27 07:39:25;;;;;;;7.00;3.33;;;;;;;;;;5078813;28;20028;-75
2023/01/27 07:41:51;;;;;;;8.77;3.22;;;;;;;;;;5080285;28;20028;-75
2023/01/27 07:44:17;;;;;;;8.32;3.10;;;;;;;;;;5080398;28;20021;-74
2023/01/27 07:46:42;;;;;;;6.65;3.22;;;;;;;;;;5080252;28;20316;-74
2023/01/27 07:49:08;;;;;;;4.90;2.90;;;;;;;;;;5079905;28;20062;-74
2023/01/27 07:51:33;;;;;;;6.53;3.28;;;;;;;;;;5080269;28;20032;-74
2023/01/27 07:54:03;;;;;;;5.88;3.08;;;;;;;;;;5080256;28;20040;-74
2023/01/27 07:56:28;;;;;;;6.20;2.97;;;;;;;;;;5080210;28;20070;-73
2023/01/27 07:58:54;;;;;;;6.15;3.10;;;;;;;;;;5080060;28;20029;-75
2023/01/27 08:01:20;;;;;;;6.60;3.10;;;;;;;;;;5079266;28;20044;-74
2023/01/27 08:03:45;;;;;;;7.28;3.20;;;;;;;;;;5078156;28;20067;-76
2023/01/27 08:06:11;;;;;;;7.53;3.20;;;;;;;;;;5071965;28;20025;-73
2023/01/27 08:08:37;;;;;;;9.45;3.28;;;;;;;;;;5068583;28;20482;-75
2023/01/27 08:11:07;;;;;;;8.05;3.35;;;;;;;;;;5068385;28;20051;-75
2023/01/27 08:13:34;;;;;;;6.10;3.30;;;;;;;;;;5071847;28;20031;-74
2023/01/27 08:16:01;;;;;;;8.10;3.53;;;;;;;;;;5072231;28;20078;-78
2023/01/27 08:18:28;;;;;;;6.18;3.35;;;;;;;;;;5071665;28;20116;-75
2023/01/27 08:20:54;;;;;;;8.88;3.80;;;;;;;;;;5072077;28;20028;-75
2023/01/27 08:23:21;;;;;;;6.50;3.60;;;;;;;;;;5072073;28;20024;-79
2023/01/27 08:25:55;;;;;;;8.15;3.95;;;;;;;;;;5054082;28;20029;-79
2023/01/27 08:28:22;;;;;;;7.80;3.83;;;;;;;;;;5071905;28;20024;-75
2023/01/27 08:30:50;;;;;;;8.95;4.00;;;;;;;;;;5071945;28;20655;-77
2023/01/27 08:33:22;;;;;;;9.88;3.80;;;;;;;;;;5053636;28;20024;-77
2023/01/27 08:35:49;;;;;;;6.35;3.47;;;;;;;;;;5071517;28;20383;-74
2023/01/27 08:38:17;;;;;;;7.47;3.92;;;;;;;;;;5071660;28;20566;-78
2023/01/27 08:40:44;;;;;;;7.15;3.63;;;;;;;;;;5071646;28;20056;-76
2023/01/27 08:43:09;;;;;;;6.85;4.00;;;;;;;;;;5071621;28;20024;-78
2023/01/27 08:45:36;;;;;;;8.77;4.28;;;;;;;;;;5071834;28;20033;-76
2023/01/27 08:48:02;;;;;;;7.57;3.70;;;;;;;;;;5071282;28;20036;-77
2023/01/27 08:50:31;;;;;;;7.32;3.65;;;;;;;;;;5075068;28;20016;-82
2023/01/27 08:53:00;;;;;;;11.68;4.40;;;;;;;;;;5081070;28;20495;-76
2023/01/27 08:55:31;;;;;;;9.10;3.90;;;;;;;;;;5073646;28;20031;-81
2023/01/27 08:57:57;;;;;;;6.68;3.75;;;;;;;;;;5076106;28;20028;-79
2023/01/27 09:00:22;;;;;;;10.07;4.38;;;;;;;;;;5057369;28;20633;-81
2023/01/27 09:02:51;;;;;;;12.88;4.97;;;;;;;;;;5074895;28;20045;-77
2023/01/27 09:05:19;;;;;;;8.88;4.60;;;;;;;;;;5081287;28;20040;-76
2023/01/27 09:07:47;;;;;;;8.15;4.50;;;;;;;;;;5077660;28;20060;-78
2023/01/27 09:10:14;;;;;;;8.63;4.38;;;;;;;;;;5075845;28;20034;-81
2023/01/27 09:12:40;;;;;;;8.57;4.45;;;;;;;;;;5071435;28;20047;-80
2023/01/27 09:15:06;;;;;;;7.63;4.10;;;;;;;;;;5053214;28;20078;-81
2023/01/27 09:17:32;;;;;;;8.02;4.00;;;;;;;;;;5052995;28;21468;-80
2023/01/27 09:19:57;;;;;;;7.80;4.28;;;;;;;;;;5052219;28;20116;-78
2023/01/27 09:22:23;;;;;;;7.88;4.00;;;;;;;;;;5078017;28;20595;-78
2023/01/27 09:24:48;;;;;;;9.55;4.25;;;;;;;;;;5072293;28;20028;-79
2023/01/27 09:27:13;;;;;;;7.25;3.70;;;;;;;;;;5070446;28;20028;-79
2023/01/27 09:29:39;;;;;;;7.40;3.58;;;;;;;;;;5070249;28;20020;-79
2023/01/27 09:32:05;;;;;;;6.93;3.50;;;;;;;;;;5069807;28;20431;-82
2023/01/27 09:34:30;;;;;;;7.82;3.85;;;;;;;;;;5068210;28;20021;-84
2023/01/27 09:37:07;;;;;;;7.45;3.90;;;;;;;;;;5070686;28;20020;-82
2023/01/27 09:39:38;;;;;;;9.30;4.28;;;;;;;;;;5070576;28;20028;-79
2023/01/27 09:42:21;;;;;;;8.45;3.95;;;;;;;;;;5070193;28;20024;-76
2023/01/27 09:44:58;;;;;;;8.75;4.35;;;;;;;;;;5069080;28;20115;-79
2023/01/27 09:47:45;;;;;;;7.65;3.90;;;;;;;;;;5070289;28;20021;-80
2023/01/27 09:50:43;;;;;;;8.70;3.85;;;;;;;;;;5069995;28;20107;-81
2023/01/27 09:53:32;;;;;;;7.57;4.22;;;;;;;;;;5074521;28;20020;-81
2023/01/27 09:56:03;;;;;;;8.50;4.22;;;;;;;;;;5071483;28;20025;-77
2023/01/27 09:58:49;;;;;;;10.85;4.65;;;;;;;;;;5070048;28;20021;-75
2023/01/27 10:01:30;;;;;;;9.80;4.80;;;;;;;;;;5070496;28;20032;-74
2023/01/27 10:03:58;;;;;;;;;;;;;;;;;;5072706;28;20048;-72
2023/01/27 10:06:44;;;;;;;10.50;4.18;;;;;;;;;;5072232;28;20493;-76
2023/01/27 10:09:10;;;;;;;7.32;3.70;;;;;;;;;;5077469;28;20024;-76
2023/01/27 10:12:08;;;;;;;7.82;3.53;;;;;;;;;;5079144;28;20024;-78
2023/01/27 10:14:49;;;;;;;8.13;3.83;;;;;;;;;;5081534;28;20088;-73
2023/01/27 10:17:23;;;;;;;;;;;;;;;;;;5078420;28;20024;-73
2023/01/27 10:20:19;;;;;;;7.30;3.47;;;;;;;;;;5077646;28;19908;-75
2023/01/27 10:22:49;;;;;;;6.18;3.28;;;;;;;;;;5091275;28;20051;-80
2023/01/27 10:25:48;;;;;;;8.27;4.15;;;;;;;;;;5091871;28;20032;-78
2023/01/27 10:28:19;;;;;;;7.38;4.00;;;;;;;;;;5054435;28;20096;-77
2023/01/27 10:31:01;;;;;;;9.45;4.97;;;;;;;;;;5082098;28;20094;-74
2023/01/27 10:33:41;;;;;;;8.57;3.85;;;;;;;;;;5101217;28;20220;-74
2023/01/27 10:36:29;;;;;;;7.93;3.72;;;;;;;;;;5093245;28;20031;-78
2023/01/27 10:39:25;;;;;;;7.63;4.45;;;;;;;;;;5093765;28;20024;-76
2023/01/27 10:42:21;;;;;;;7.35;3.80;;;;;;;;;;5089053;28;20028;-76
2023/01/27 10:45:09;;;;;;;7.20;3.85;;;;;;;;;;5068171;28;20089;-75
2023/01/27 10:47:56;;;;;;;7.50;4.00;;;;;;;;;;5087958;28;20020;-73
2023/01/27 10:50:29;;;;;;;8.45;4.38;;;;;;;;;;5074105;28;20090;-74
2023/01/27 10:53:11;;;;;;;6.93;3.78;;;;;;;;;;5049692;28;20518;-74
2023/01/27 10:55:41;;;;;;;6.88;4.18;;;;;;;;;;5067389;28;20047;-78
2023/01/27 10:58:19;;;;;;;6.18;3.65;;;;;;;;;;5068032;28;20035;-76
2023/01/27 11:00:47;;;;;;;7.75;3.78;;;;;;;;;;5069058;28;20036;-75
2023/01/27 11:03:39;;;;;;;8.02;4.00;;;;;;;;;;5069381;28;20102;-73
2023/01/27 11:06:16;;;;;;;7.40;3.75;;;;;;;;;;5051749;28;20024;-76
2023/01/27 11:08:46;;;;;;;6.60;3.85;;;;;;;;;;5069257;28;20514;-75
2023/01/27 11:14:15;;;;;;;8.18;3.88;;;;;;;;;;5069093;28;20404;-75
2023/01/27 11:16:46;;;;;;;12.23;5.43;;;;;;;;;;5069138;28;20028;-73
2023/01/27 11:19:39;;;;;;;9.35;5.00;;;;;;;;;;5068906;28;20025;-74
2023/01/27 11:22:15;;;;;;;7.93;4.18;;;;;;;;;;5069057;28;20025;-72
2023/01/27 11:24:46;;;;;;;8.45;4.65;;;;;;;;;;5068693;28;20024;-72
2023/01/27 11:27:23;;;;;;;;;;;;;;;;;;5069359;28;20032;-75
2023/01/27 11:30:07;;;;;;;9.95;4.70;;;;;;;;;;5068812;28;19951;-77
2023/01/27 11:33:23;;;;;;;7.22;4.03;;;;;;;;;;5068526;28;20024;-75
2023/01/27 11:35:50;;;;;;;7.78;4.25;;;;;;;;;;5013064;28;20048;-74
2023/01/27 11:38:21;;;;;;;8.13;4.50;;;;;;;;;;5068876;28;20042;-76
2023/01/27 11:40:49;;;;;;;8.23;4.45;;;;;;;;;;5068408;28;20039;-73
2023/01/27 11:43:18;;;;;;;7.28;4.10;;;;;;;;;;5068820;28;20029;-75
2023/01/27 11:45:45;;;;;;;6.85;3.80;;;;;;;;;;5068591;28;20020;-75
2023/01/27 11:48:13;;;;;;;6.13;3.92;;;;;;;;;;5072095;28;20019;-79
2023/01/27 11:50:40;;;;;;;7.25;3.97;;;;;;;;;;5072160;28;20031;-76
2023/01/27 11:53:20;;;;;;;6.18;4.07;;;;;;;;;;5073437;28;20016;-77
2023/01/27 11:55:59;;;;;;;6.47;4.07;;;;;;;;;;5072932;28;20028;-78
2023/01/27 11:58:48;;;;;;;6.47;3.72;;;;;;;;;;5072674;28;20024;-77
2023/01/27 12:01:20;;;;;;;6.32;3.60;;;;;;;;;;5071903;28;20103;-77
2023/01/27 12:03:58;;;;;;;7.88;4.50;;;;;;;;;;5054042;28;20091;-77
2023/01/27 12:06:48;;;;;;;6.90;3.85;;;;;;;;;;5072426;28;20369;-75
2023/01/27 12:09:40;;;;;;;7.18;4.00;;;;;;;;;;5072206;28;20438;-73
2023/01/27 12:12:25;;;;;;;6.50;4.00;;;;;;;;;;5067811;28;20124;-75
2023/01/27 12:14:54;;;;;;;6.95;3.58;;;;;;;;;;5072291;28;20030;-76
2023/01/27 12:17:39;;;;;;;7.07;3.85;;;;;;;;;;5072257;28;20024;-75
2023/01/27 12:20:23;;;;;;;6.38;3.90;;;;;;;;;;5071674;28;20128;-74
2023/01/27 12:22:52;;;;;;;6.50;3.90;;;;;;;;;;5053834;28;20568;-74
2023/01/27 12:25:23;;;;;;;7.05;4.35;;;;;;;;;;5071768;28;20032;-75
2023/01/27 12:27:52;;;;;;;6.30;4.15;;;;;;;;;;5072014;28;20043;-77
2023/01/27 12:30:28;;;;;;;7.72;3.95;;;;;;;;;;5071660;28;20105;-77
2023/01/27 12:32:54;;;;;;;8.88;4.10;;;;;;;;;;5053721;28;20037;-75
2023/01/27 12:35:32;;;;;;;6.65;3.78;;;;;;;;;;5071719;28;20506;-76
2023/01/27 12:38:06;;;;;;;5.60;3.58;;;;;;;;;;5071579;28;20028;-77
2023/01/27 12:40:32;;;;;;;5.25;3.53;;;;;;;;;;5071567;28;20077;-76
2023/01/27 12:43:01;;;;;;;6.55;3.75;;;;;;;;;;5071508;28;20043;-77
2023/01/27 12:45:29;;;;;;;5.78;3.80;;;;;;;;;;5071648;28;20090;-73
2023/01/27 12:48:06;;;;;;;6.90;3.38;;;;;;;;;;5071739;28;20032;-76
2023/01/27 12:50:33;;;;;;;9.70;5.05;;;;;;;;;;5071198;28;20021;-74
2023/01/27 12:53:05;;;;;;;8.02;4.72;;;;;;;;;;5071199;28;20039;-74
2023/01/27 12:55:53;;;;;;;8.55;4.70;;;;;;;;;;5071458;28;20037;-74
2023/01/27 12:58:30;;;;;;;7.93;4.07;;;;;;;;;;5070864;28;20472;-75
2023/01/27 13:00:58;;;;;;;5.95;3.70;;;;;;;;;;5071276;28;20028;-74
2023/01/27 13:03:24;;;;;;;6.70;3.80;;;;;;;;;;5071059;28;20052;-73
2023/01/27 13:05:54;;;;;;;6.85;3.97;;;;;;;;;;5071233;28;20028;-75
2023/01/27 13:08:21;;;;;;;7.47;4.40;;;;;;;;;;5071855;28;20537;-76
2023/01/27 13:10:58;;;;;;;6.05;3.72;;;;;;;;;;5070870;28;20048;-74
2023/01/27 13:13:28;;;;;;;7.18;4.03;;;;;;;;;;5071106;28;20024;-77
2023/01/27 13:16:04;;;;;;;6.72;3.65;;;;;;;;;;5071140;28;20090;-74
2023/01/27 13:18:37;;;;;;;5.93;3.53;;;;;;;;;;5070712;28;20021;-77
2023/01/27 13:21:14;;;;;;;5.85;3.67;;;;;;;;;;5070554;28;20528;-74
2023/01/27 13:23:40;;;;;;;5.90;3.80;;;;;;;;;;5070980;28;20029;-74
2023/01/27 13:26:06;;;;;;;5.43;3.67;;;;;;;;;;5052903;28;20034;-75
2023/01/27 13:29:08;;;;;;;6.70;3.80;;;;;;;;;;5070943;28;20032;-74
2023/01/27 13:32:04;;;;;;;7.43;3.80;;;;;;;;;;5070100;28;20024;-76
2023/01/27 13:34:32;;;;;;;5.82;3.53;;;;;;;;;;5070358;28;20492;-74
2023/01/27 13:37:19;;;;;;;6.72;4.03;;;;;;;;;;5052463;28;20017;-75
2023/01/27 13:39:50;;;;;;;7.57;4.43;;;;;;;;;;5070766;28;20545;-73
2023/01/27 13:42:47;;;;;;;9.68;4.65;;;;;;;;;;5070521;28;20021;-74
2023/01/27 13:45:28;;;;;;;6.75;3.83;;;;;;;;;;5070650;28;20032;-74
2023/01/27 13:48:00;;;;;;;;;;;;;;;;;;5070611;28;20025;-74
2023/01/27 13:50:37;;;;;;;5.75;3.58;;;;;;;;;;5052181;28;19955;-77
2023/01/27 13:53:04;;;;;;;7.03;3.72;;;;;;;;;;5052788;28;20107;-77
2023/01/27 13:55:49;;;;;;;6.85;3.53;;;;;;;;;;5070521;28;20017;-78
2023/01/27 13:58:28;;;;;;;5.82;3.58;;;;;;;;;;5070243;28;20549;-75
2023/01/27 14:01:16;;;;;;;7.15;3.88;;;;;;;;;;5070361;28;20123;-77
2023/01/27 14:04:11;;;;;;;6.63;3.42;;;;;;;;;;5038665;28;20413;-80
2023/01/27 14:06:58;;;;;;;5.30;3.47;;;;;;;;;;5026792;28;20045;-79
2023/01/27 14:09:45;;;;;;;6.03;4.00;;;;;;;;;;5069380;28;20032;-80
2023/01/27 14:12:44;;;;;;;7.07;3.92;;;;;;;;;;5069796;28;20082;-77
2023/01/27 14:15:36;;;;;;;8.15;4.30;;;;;;;;;;5070176;28;20377;-78
2023/01/27 14:18:13;;;;;;;11.68;4.60;;;;;;;;;;5069504;28;20495;-73
2023/01/27 14:20:44;;;;;;;12.32;5.28;;;;;;;;;;5069650;28;20020;-74
2023/01/27 14:23:32;;;;;;;8.30;4.90;;;;;;;;;;5069741;28;20025;-75
2023/01/27 14:26:19;;;;;;;9.30;5.00;;;;;;;;;;5051933;28;20071;-75
2023/01/27 14:29:09;;;;;;;8.70;4.45;;;;;;;;;;5082580;28;20039;-75
2023/01/27 14:31:40;;;;;;;6.50;3.78;;;;;;;;;;5083956;28;20043;-75
2023/01/27 14:34:31;;;;;;;6.78;3.72;;;;;;;;;;5071305;28;20526;-76
2023/01/27 14:37:24;;;;;;;7.07;3.70;;;;;;;;;;5069986;28;20033;-79
2023/01/27 14:40:34;;;;;;;6.15;4.00;;;;;;;;;;5069868;28;20032;-78
2023/01/27 14:43:05;;;;;;;8.23;4.00;;;;;;;;;;5064136;28;20044;-78
2023/01/27 14:45:35;;;;;;;6.07;3.60;;;;;;;;;;5069581;28;20036;-76
2023/01/27 14:48:12;;;;;;;5.97;3.90;;;;;;;;;;5069370;28;20036;-77
2023/01/27 14:50:46;;;;;;;8.93;4.68;;;;;;;;;;5069255;28;20028;-75
2023/01/27 14:53:39;;;;;;;7.65;4.30;;;;;;;;;;5069252;28;20031;-77
2023/01/27 14:56:20;;;;;;;6.03;3.60;;;;;;;;;;5069573;28;20040;-75
2023/01/27 14:58:52;;;;;;;;;;;;;;;;;;5069634;28;20107;-75
2023/01/27 15:01:38;;;;;;;8.48;3.50;;;;;;;;;;5069088;28;19912;-75
2023/01/27 15:04:21;;;;;;;4.93;3.22;;;;;;;;;;5069015;28;20029;-77
2023/01/27 15:07:10;;;;;;;5.18;3.13;;;;;;;;;;5069249;28;20036;-76
2023/01/27 15:09:54;;;;;;;4.55;3.05;;;;;;;;;;5056154;28;20526;-77
2023/01/27 15:12:46;;;;;;;5.82;3.25;;;;;;;;;;5068876;28;20108;-75
2023/01/27 15:15:40;;;;;;;8.88;3.50;;;;;;;;;;5069245;28;20123;-78
2023/01/27 15:18:42;;;;;;;8.18;4.13;;;;;;;;;;5068948;28;20036;-72
2023/01/27 15:21:28;;;;;;;8.93;4.55;;;;;;;;;;5070786;28;20028;-74
2023/01/27 15:24:18;;;;;;;4.72;3.30;;;;;;;;;;5073104;28;20495;-72
2023/01/27 15:26:46;;;;;;;5.47;3.13;;;;;;;;;;5073038;28;20104;-76
2023/01/27 15:29:16;;;;;;;8.27;3.50;;;;;;;;;;5074176;28;20492;-75
2023/01/27 15:31:43;;;;;;;5.25;3.20;;;;;;;;;;5081817;28;20029;-75
2023/01/27 15:34:21;;;;;;;6.18;3.10;;;;;;;;;;5086081;28;20032;-72
2023/01/27 15:37:00;;;;;;;7.50;3.67;;;;;;;;;;5081570;28;20035;-72
2023/01/27 15:39:26;;;;;;;4.65;2.92;;;;;;;;;;5075043;28;20630;-73
2023/01/27 15:42:01;;;;;;;7.60;3.60;;;;;;;;;;5075901;28;20033;-75